ADDS TAF Board (Experimental) INFO

IDs: Format: Expanded Condensed

Updated at: 0443 UTC 22 Oct 2014

KORD - Chicago/O'Hare Intl, IL, US

Issued at 0235 UTC 22 Oct 2014
Time0430Z22/05Z22/06Z22/07Z22/08Z22/09Z22/10Z22/11Z22/12Z22/13Z22/14Z22/15Z22/16Z22/17Z
TypeOBSPRVLPRVLPRVLPRVLPRVLPRVLPRVLPRVLPRVLPRVLPRVLPRVLPRVL
VIS10>6>6>6>6>6>6>6>6>6>6>6>6>6
CIG3028282828------------------
CoverOVCOVCOVCOVCOVCSCTSCTSCTSCTSCTSKCSKCSKCSKC
FltCatMVFRMVFRMVFRMVFRMVFRVFRVFRVFRVFRVFRVFRVFRVFRVFR
WX----------------------------
WDir35020202020505050505080808080
WSpd37777555556666
WGst----------------------------
R04/22
XWnd22222-1-1-1-1-1-4-4-4-4
HWnd27777555555555
R09/27
XWnd37777333331111
HWnd-12222444446666
R10/28
XWnd37777333331111
HWnd-12222444446666
R14/32
XWnd26666555555555
HWnd-3-3-3-3-3000003333
Raw TAF
KORD 220235Z 2203/2306 02007KT P6SM OVC028
  FM220900 05005KT P6SM SCT028
  FM221400 08006KT P6SM SKC
  FM230300 14005KT P6SM SKC


Raw METAR
KORD 220430Z 35003KT 10SM OVC030 08/03 A3025 RMK AO2 T00830033
KORD 220351Z 36003KT 10SM BKN029 08/03 A3025 RMK AO2 SLP248 T00830033

TAF Board Legend

Hazard VFR MVFR IFR LIFR
Visibility (sm) >5 3≤X≤5 1≤X<3 <1
Ceiling (100 ft) >30 10≤X≤30 5≤X<10 <5
Wind Speed (kt) <10 10≤X<20 20≤X<30 ≥30
Wind Gust (kt) <15 15≤X<25 25≤X<35 ≥35
Weather No Wx Reported VCTS,-TS,-FZRA TS,FZRA +TS,+FZRA


Page loaded:  04:43 UTC  |   09:43 PM Pacific  |   10:43 PM Mountain  |   11:43 PM Central  |   12:43 AM Eastern

 

ADVISORIES

FORECASTS

FORECASTS

OBSERVATIONS

USER TOOLS

ABOUT US